Time;durP1;ratioP1;P1;durP2;ratioP2;P2;SDS_P1;SDS_P2;PMS_P1;PMS_P2;Temp;Humidity;BMP_temperature;BMP_pressure;BME280_temperature;BME280_humidity;BME280_pressure;Samples;Min_cycle;Max_cycle;Signal;HPM_P1;HPM_P2
2023/02/17 00:01:22;;;;;;;16.40;6.30;;;;;;;9.79;79.01;100313.22;5012456;28;20050;-90
2023/02/17 00:03:50;;;;;;;15.73;8.20;;;;;;;9.83;79.19;100314.97;5014575;28;20125;-90
2023/02/17 00:06:19;;;;;;;14.88;6.68;;;;;;;9.85;79.91;100324.44;5001255;28;20050;-91
2023/02/17 00:08:47;;;;;;;14.73;6.70;;;;;;;9.86;79.51;100326.16;4994967;28;20072;-90
2023/02/17 00:11:14;;;;;;;16.02;7.47;;;;;;;9.90;79.85;100334.81;4989576;28;20074;-90
2023/02/17 00:13:42;;;;;;;17.10;8.07;;;;;;;9.91;79.67;100318.44;4989486;28;20054;-89
2023/02/17 00:16:18;;;;;;;16.08;7.68;;;;;;;9.95;79.82;100315.00;4989228;28;20062;-91
2023/02/17 00:18:46;;;;;;;13.95;6.82;;;;;;;9.94;78.73;100302.94;4991507;28;20063;-90
2023/02/17 00:21:17;;;;;;;17.75;8.70;;;;;;;9.98;79.64;100299.50;4976253;28;20078;-90
2023/02/17 00:23:46;;;;;;;17.17;7.97;;;;;;;10.00;79.21;100307.28;4975468;28;20057;-90
2023/02/17 00:26:13;;;;;;;15.25;7.93;;;;;;;10.01;79.41;100309.88;4976151;28;20110;-90
2023/02/17 00:28:40;;;;;;;14.38;7.80;;;;;;;10.02;79.42;100306.41;4994521;28;20043;-91
2023/02/17 00:31:09;;;;;;;18.23;8.25;;;;;;;10.05;79.87;100305.56;4985209;28;20097;-90
2023/02/17 00:33:36;;;;;;;14.95;7.60;;;;;;;10.07;79.34;100309.03;4974748;28;20728;-89
2023/02/17 00:36:06;;;;;;;16.33;7.97;;;;;;;10.08;79.81;100290.03;4975469;28;20070;-91
2023/02/17 00:38:33;;;;;;;16.80;7.05;;;;;;;10.09;79.58;100290.88;4974975;28;20067;-91
2023/02/17 00:40:59;;;;;;;12.00;6.60;;;;;;;10.12;79.15;100301.25;4979498;28;20038;-90
2023/02/17 00:43:26;;;;;;;15.48;7.03;;;;;;;10.15;79.59;100290.91;4997414;28;20074;-90
2023/02/17 00:45:53;;;;;;;15.02;7.75;;;;;;;10.18;79.87;100293.53;4974560;28;20051;-90
2023/02/17 00:48:21;;;;;;;13.27;6.47;;;;;;;10.20;79.08;100286.59;4990052;28;20046;-90
2023/02/17 00:50:48;;;;;;;12.68;6.80;;;;;;;10.20;80.11;100284.03;4982499;28;20053;-90
2023/02/17 00:53:15;;;;;;;12.80;6.65;;;;;;;10.19;79.35;100282.28;4972886;28;20101;-91
2023/02/17 00:55:41;;;;;;;14.77;6.47;;;;;;;10.22;79.39;100282.31;4975139;28;20127;-90
2023/02/17 00:58:08;;;;;;;12.50;6.50;;;;;;;10.21;79.99;100285.78;4974966;28;20066;-90
2023/02/17 01:00:35;;;;;;;11.45;6.38;;;;;;;10.21;80.22;100280.59;4973005;28;20061;-89
2023/02/17 01:03:02;;;;;;;11.52;6.22;;;;;;;10.23;79.53;100278.84;4986328;28;20047;-90
2023/02/17 01:05:29;;;;;;;12.43;6.72;;;;;;;10.24;79.66;100270.22;4993537;28;20046;-89
2023/02/17 01:07:56;;;;;;;11.70;6.50;;;;;;;10.25;80.48;100266.78;4989273;28;20054;-89
2023/02/17 01:10:22;;;;;;;10.57;5.93;;;;;;;10.23;80.38;100268.50;4976084;28;20062;-89
2023/02/17 01:12:49;;;;;;;12.43;6.25;;;;;;;10.21;80.43;100270.25;4973620;28;20051;-88
2023/02/17 01:15:16;;;;;;;10.57;6.40;;;;;;;10.25;79.49;100266.78;4973349;28;20050;-89
2023/02/17 01:17:43;;;;;;;10.55;6.82;;;;;;;10.25;80.66;100271.97;4983500;28;20049;-89
2023/02/17 01:20:10;;;;;;;9.82;6.15;;;;;;;10.27;80.39;100259.88;4986131;28;20059;-89
2023/02/17 01:22:38;;;;;;;12.43;6.18;;;;;;;10.24;80.36;100249.50;4973004;28;20047;-89
2023/02/17 01:25:06;;;;;;;11.75;5.55;;;;;;;10.26;80.21;100263.34;4973290;28;20058;-89
2023/02/17 01:27:33;;;;;;;11.10;5.80;;;;;;;10.29;80.69;100260.75;4973897;28;20093;-90
2023/02/17 01:30:00;;;;;;;10.85;5.10;;;;;;;10.31;80.46;100254.72;4973581;28;20046;-89
2023/02/17 01:32:27;;;;;;;9.93;5.60;;;;;;;10.32;80.48;100253.84;4973947;28;20060;-89
2023/02/17 01:34:54;;;;;;;10.02;5.95;;;;;;;10.32;79.79;100248.66;4974221;28;20115;-89
2023/02/17 01:37:21;;;;;;;9.75;5.70;;;;;;;10.31;80.19;100254.72;4981667;28;20047;-91
2023/02/17 01:39:48;;;;;;;10.77;7.03;;;;;;;10.33;79.98;100258.19;5007263;28;20052;-90
2023/02/17 01:42:16;;;;;;;9.18;5.13;;;;;;;10.33;79.95;100261.63;4998637;28;20057;-89
2023/02/17 01:50:40;;;;;;;8.35;3.72;;;;;;;10.39;81.10;100259.03;5058792;27;20409;-44
2023/02/17 01:53:09;;;;;;;9.10;4.05;;;;;;;10.41;81.08;100259.06;5035045;28;20571;-46
2023/02/17 01:55:39;;;;;;;8.32;3.72;;;;;;;10.37;81.02;100254.72;5035584;28;20081;-44
2023/02/17 01:58:09;;;;;;;8.85;4.07;;;;;;;10.44;81.19;100266.84;5039577;28;20048;-45
2023/02/17 02:00:36;;;;;;;7.82;4.05;;;;;;;10.42;81.18;100263.34;5037368;28;20142;-43
2023/02/17 02:03:07;;;;;;;9.40;4.40;;;;;;;10.48;81.33;100267.72;5039636;28;20136;-43
2023/02/17 02:05:34;;;;;;;8.52;3.80;;;;;;;10.47;80.65;100261.66;5036599;28;20583;-43
2023/02/17 02:08:03;;;;;;;8.20;3.92;;;;;;;10.48;81.41;100268.59;5040927;28;20492;-45
2023/02/17 02:10:30;;;;;;;7.18;3.05;;;;;;;10.51;81.26;100265.97;5041169;28;20103;-45
2023/02/17 02:12:56;;;;;;;6.25;3.03;;;;;;;10.50;80.52;100261.66;5040328;28;20057;-43
2023/02/17 02:15:28;;;;;;;8.15;3.15;;;;;;;10.56;81.48;100266.00;5037250;28;20516;-45
2023/02/17 02:23:50;;;;;;;5.80;3.13;;;;;;;10.53;80.65;100272.03;5035914;27;20749;-42
2023/02/17 02:35:24;;;;;;;5.40;3.60;;;;;;;10.58;81.46;100248.75;5044423;27;20395;-48
2023/02/17 02:37:59;;;;;;;5.10;2.85;;;;;;;10.61;80.59;100263.41;5004804;28;20106;-47
2023/02/17 02:40:31;;;;;;;5.20;2.60;;;;;;;10.59;81.23;100249.59;5005468;28;20074;-46
2023/02/17 02:43:00;;;;;;;4.97;2.88;;;;;;;10.56;80.54;100249.56;5014128;28;20132;-49
2023/02/17 02:45:27;;;;;;;4.57;2.72;;;;;;;10.58;80.56;100258.22;5022404;28;20077;-44
2023/02/17 02:47:56;;;;;;;6.53;2.78;;;;;;;10.56;81.06;100252.16;5015451;28;20057;-46
2023/02/17 02:59:17;;;;;;;4.57;2.75;;;;;;;10.50;80.24;100256.50;5047919;28;20413;-48
2023/02/17 03:04:56;;;;;;;6.07;3.47;;;;;;;10.49;80.00;100243.53;5076277;27;20390;-44
2023/02/17 03:07:35;;;;;;;4.93;2.08;;;;;;;10.49;80.11;100243.53;5020836;28;20290;-44
2023/02/17 03:10:03;;;;;;;4.53;4.03;;;;;;;10.52;79.97;100241.84;5024355;28;20045;-41
2023/02/17 03:12:30;;;;;;;4.25;3.17;;;;;;;10.49;80.32;100230.59;5024168;28;20072;-45
2023/02/17 03:15:02;;;;;;;4.38;3.35;;;;;;;10.45;80.46;100227.16;5028854;28;20045;-45
2023/02/17 03:17:32;;;;;;;4.65;3.92;;;;;;;10.46;80.14;100249.59;5031021;28;20077;-45
2023/02/17 03:20:00;;;;;;;;;;;;;;;10.33;79.94;100242.66;5024739;28;20408;-46
2023/02/17 03:22:32;;;;;;;4.68;3.25;;;;;;;10.39;79.46;100232.28;5042420;28;19975;-44
2023/02/17 03:25:00;;;;;;;4.13;3.15;;;;;;;10.39;80.41;100233.16;5044195;28;20100;-48
2023/02/17 03:27:27;;;;;;;5.43;2.83;;;;;;;10.39;80.16;100235.75;5046084;28;20492;-42
2023/02/17 03:29:54;;;;;;;4.15;3.33;;;;;;;10.38;80.22;100217.63;5041879;28;20579;-45
2023/02/17 03:32:21;;;;;;;5.07;1.30;;;;;;;10.35;79.73;100231.44;5042527;28;20439;-47
2023/02/17 03:34:47;;;;;;;4.18;3.67;;;;;;;10.36;79.90;100216.72;5040584;28;20052;-44
2023/02/17 03:37:14;;;;;;;4.25;3.03;;;;;;;10.34;79.97;100228.84;5040205;28;20514;-43
2023/02/17 03:39:40;;;;;;;2.30;1.20;;;;;;;10.34;79.07;100239.19;5038783;28;20445;-44
2023/02/17 03:42:07;;;;;;;4.53;3.15;;;;;;;10.32;79.16;100230.53;5046995;28;20095;-49
2023/02/17 03:44:34;;;;;;;2.63;1.55;;;;;;;10.29;79.67;100232.28;5037804;28;20492;-44
2023/02/17 03:47:00;;;;;;;3.65;3.17;;;;;;;10.25;79.99;100235.72;5041869;28;20147;-49
2023/02/17 03:49:27;;;;;;;3.45;2.92;;;;;;;10.25;79.87;100215.03;5043058;28;20467;-44
2023/02/17 03:51:54;;;;;;;3.67;2.83;;;;;;;10.28;79.37;100230.56;5042433;28;20606;-44
2023/02/17 03:54:20;;;;;;;4.10;2.75;;;;;;;10.32;78.97;100222.78;5037285;28;20045;-46
2023/02/17 03:56:47;;;;;;;3.05;2.70;;;;;;;10.31;79.01;100218.47;5043636;28;20407;-49
2023/02/17 03:59:13;;;;;;;2.42;1.10;;;;;;;10.31;79.18;100228.81;5043307;28;20488;-45
2023/02/17 04:01:40;;;;;;;4.13;2.67;;;;;;;10.28;79.78;100234.88;5041949;28;21091;-46
2023/02/17 04:04:06;;;;;;;3.08;2.58;;;;;;;10.31;79.50;100226.22;5043699;28;20041;-42
2023/02/17 04:06:33;;;;;;;2.58;1.48;;;;;;;10.29;79.40;100221.94;5042549;28;20232;-45
2023/02/17 04:09:00;;;;;;;4.03;3.05;;;;;;;10.31;79.45;100240.06;5045692;28;20053;-43
2023/02/17 04:11:26;;;;;;;3.42;2.25;;;;;;;10.31;79.21;100241.75;5041884;28;20488;-46
2023/02/17 04:13:53;;;;;;;4.70;3.50;;;;;;;10.29;79.31;100242.63;5043212;28;20049;-50
2023/02/17 04:16:20;;;;;;;6.05;2.88;;;;;;;10.29;79.32;100253.00;5027490;28;20088;-47
2023/02/17 04:18:46;;;;;;;3.45;2.40;;;;;;;10.33;78.11;100253.00;5036232;28;20132;-45
2023/02/17 04:21:13;;;;;;;3.97;3.30;;;;;;;10.33;78.73;100255.59;5029536;28;20126;-48
2023/02/17 04:23:40;;;;;;;3.85;1.92;;;;;;;10.32;78.39;100236.59;5024418;28;20071;-43
2023/02/17 04:26:07;;;;;;;4.45;2.80;;;;;;;10.35;79.01;100233.13;5027739;28;20091;-46
2023/02/17 04:28:37;;;;;;;2.78;1.27;;;;;;;10.29;78.81;100232.28;5026783;28;20441;-46
2023/02/17 04:31:04;;;;;;;2.45;2.22;;;;;;;10.34;78.68;100228.84;5025484;28;20053;-46
2023/02/17 04:33:31;;;;;;;4.63;2.38;;;;;;;10.35;78.56;100221.06;5023976;28;20069;-48
2023/02/17 04:35:58;;;;;;;4.97;2.63;;;;;;;10.34;78.44;100223.66;5026104;28;20136;-46
2023/02/17 04:38:26;;;;;;;2.63;2.20;;;;;;;10.35;78.94;100215.88;5026661;28;20103;-45
2023/02/17 04:40:55;;;;;;;2.45;1.90;;;;;;;10.35;78.82;100226.25;5031283;28;20045;-44
2023/02/17 04:43:23;;;;;;;2.25;1.90;;;;;;;10.37;77.99;100215.91;5026895;28;20076;-45
2023/02/17 04:45:50;;;;;;;2.20;1.92;;;;;;;10.35;78.65;100199.47;5025304;28;20099;-46
2023/02/17 04:48:18;;;;;;;2.15;1.95;;;;;;;10.27;78.54;100218.47;5024876;28;20058;-45
2023/02/17 04:50:44;;;;;;;2.78;1.98;;;;;;;10.31;77.87;100205.53;5025294;28;20045;-46
2023/02/17 04:53:12;;;;;;;2.13;1.92;;;;;;;10.28;78.92;100204.66;5025487;28;20404;-44
2023/02/17 04:55:40;;;;;;;2.80;2.47;;;;;;;10.31;78.80;100210.69;5026309;28;20424;-44
2023/02/17 04:58:07;;;;;;;1.77;0.80;;;;;;;10.27;78.08;100208.09;5019834;28;20459;-44
2023/02/17 05:00:35;;;;;;;2.45;1.02;;;;;;;10.26;77.95;100206.38;5025265;28;20449;-42
2023/02/17 05:03:01;;;;;;;2.40;2.17;;;;;;;10.27;78.27;100207.25;5025622;28;20057;-44
2023/02/17 05:05:28;;;;;;;1.92;1.70;;;;;;;10.29;78.21;100210.69;5014964;28;20072;-44
2023/02/17 05:07:55;;;;;;;3.85;1.60;;;;;;;10.27;78.66;100196.91;5029365;28;20052;-45
2023/02/17 05:10:21;;;;;;;2.20;2.00;;;;;;;10.26;78.67;100192.56;5032060;28;20084;-42
2023/02/17 05:12:49;;;;;;;3.65;3.33;;;;;;;10.23;78.00;100196.00;5030882;28;20049;-45
2023/02/17 05:15:16;;;;;;;2.53;1.73;;;;;;;10.18;78.61;100181.34;5025507;28;20045;-46
2023/02/17 05:17:42;;;;;;;2.22;2.03;;;;;;;10.18;78.66;100182.22;5026574;28;20092;-46
2023/02/17 05:20:10;;;;;;;2.13;1.80;;;;;;;10.17;77.98;100185.69;5031766;28;20103;-45
2023/02/17 05:22:37;;;;;;;2.45;2.25;;;;;;;10.15;78.02;100182.22;5029156;28;20132;-42
2023/02/17 05:25:04;;;;;;;1.52;1.42;;;;;;;10.11;77.98;100181.34;5022842;28;20125;-46
2023/02/17 05:27:32;;;;;;;1.55;1.45;;;;;;;10.10;77.91;100179.59;5024181;28;20483;-45
2023/02/17 05:29:58;;;;;;;2.63;1.90;;;;;;;10.06;78.32;100175.28;5024966;28;20532;-49
2023/02/17 05:32:25;;;;;;;1.73;1.63;;;;;;;10.08;78.40;100175.28;5026030;28;20076;-45
2023/02/17 05:34:51;;;;;;;1.50;1.40;;;;;;;10.08;78.22;100173.59;5026025;28;20501;-48
2023/02/17 05:37:18;;;;;;;2.05;1.90;;;;;;;10.09;78.31;100171.84;5023145;28;20110;-46
2023/02/17 05:39:45;;;;;;;2.08;1.85;;;;;;;10.07;78.70;100173.56;5021220;28;20408;-48
2023/02/17 05:42:11;;;;;;;1.73;1.63;;;;;;;10.05;78.56;100186.50;5022592;28;20127;-44
2023/02/17 05:44:38;;;;;;;1.60;1.35;;;;;;;10.05;78.28;100185.63;5025528;28;20072;-44
2023/02/17 05:47:05;;;;;;;1.58;1.40;;;;;;;10.11;78.23;100178.75;5024709;28;20053;-46
2023/02/17 05:49:31;;;;;;;1.42;1.33;;;;;;;10.12;78.89;100175.31;5023753;28;20053;-42
2023/02/17 05:51:58;;;;;;;2.03;1.77;;;;;;;10.15;78.05;100177.91;5023649;28;20080;-43
2023/02/17 05:54:24;;;;;;;1.90;1.38;;;;;;;10.16;78.59;100178.75;5021830;28;20124;-44
2023/02/17 05:56:51;;;;;;;2.58;1.83;;;;;;;10.18;77.92;100182.22;5024062;28;20073;-44
2023/02/17 05:59:18;;;;;;;4.13;1.70;;;;;;;10.21;78.57;100187.41;5025441;28;20755;-49
2023/02/17 06:01:45;;;;;;;1.70;1.60;;;;;;;10.21;78.58;100187.41;5024843;28;20132;-45
2023/02/17 06:04:11;;;;;;;2.58;1.55;;;;;;;10.24;78.29;100187.38;5021844;28;20065;-45
2023/02/17 06:06:38;;;;;;;1.95;1.70;;;;;;;10.26;78.21;100189.97;5021947;28;20070;-46
2023/02/17 06:09:04;;;;;;;1.48;1.38;;;;;;;10.23;78.44;100201.19;5020587;28;20069;-45
2023/02/17 06:11:32;;;;;;;1.58;1.40;;;;;;;10.25;77.45;100199.47;5026472;28;20119;-45
2023/02/17 06:13:58;;;;;;;1.10;0.30;;;;;;;10.28;78.39;100202.09;5023662;28;20434;-43
2023/02/17 06:16:25;;;;;;;1.38;1.27;;;;;;;10.31;78.31;100208.09;5025292;28;20069;-44
2023/02/17 06:18:51;;;;;;;1.50;1.40;;;;;;;10.33;77.45;100206.41;5023548;28;20045;-46
2023/02/17 06:21:18;;;;;;;1.80;1.70;;;;;;;10.35;77.40;100202.06;5023188;28;20500;-43
2023/02/17 06:23:45;;;;;;;1.73;1.52;;;;;;;10.35;77.26;100202.06;5021326;28;20037;-46
2023/02/17 06:26:11;;;;;;;1.73;1.63;;;;;;;10.39;77.44;100206.38;5022050;28;20080;-47
2023/02/17 06:28:38;;;;;;;2.05;1.70;;;;;;;10.38;78.42;100204.66;5019671;28;20057;-46
2023/02/17 06:31:04;;;;;;;1.67;1.58;;;;;;;10.40;77.68;100197.75;5021971;28;20463;-45
2023/02/17 06:33:31;;;;;;;1.77;1.52;;;;;;;10.43;77.45;100202.09;5022521;28;20049;-46
2023/02/17 06:35:58;;;;;;;1.38;1.27;;;;;;;10.44;77.97;100198.63;5025563;28;20065;-43
2023/02/17 06:38:25;;;;;;;2.35;2.25;;;;;;;10.45;77.82;100211.63;5021957;28;20156;-46
2023/02/17 06:40:52;;;;;;;1.95;1.75;;;;;;;10.45;77.20;100202.97;5022200;28;20492;-46
2023/02/17 06:43:19;;;;;;;1.75;1.65;;;;;;;10.45;77.82;100211.63;5024278;28;20046;-48
2023/02/17 06:45:45;;;;;;;1.65;1.55;;;;;;;10.46;77.83;100202.97;5024331;28;20085;-42
2023/02/17 06:48:12;;;;;;;2.90;1.40;;;;;;;10.50;77.47;100194.34;5027698;28;20493;-43
2023/02/17 06:50:39;;;;;;;2.05;1.92;;;;;;;10.44;78.13;100199.50;5023919;28;20289;-43
2023/02/17 06:53:05;;;;;;;1.63;1.52;;;;;;;10.48;77.52;100179.66;5021468;28;20057;-44
2023/02/17 06:55:34;;;;;;;1.55;1.45;;;;;;;10.48;78.18;100170.19;5022697;28;20480;-45
2023/02/17 06:58:01;;;;;;;1.60;1.50;;;;;;;10.45;78.23;100190.91;5022459;28;20098;-41
2023/02/17 07:00:27;;;;;;;1.55;1.35;;;;;;;10.49;77.12;100208.16;5021623;28;20126;-42
2023/02/17 07:02:54;;;;;;;1.40;1.30;;;;;;;10.49;77.45;100213.34;5022516;28;20081;-46
2023/02/17 07:05:20;;;;;;;1.65;1.40;;;;;;;10.51;77.19;100227.13;5023785;28;20045;-49
2023/02/17 07:07:47;;;;;;;2.35;1.63;;;;;;;10.52;78.07;100208.16;5020887;28;20127;-44
2023/02/17 07:10:14;;;;;;;3.85;1.58;;;;;;;10.53;78.09;100207.28;5018155;28;20108;-50
2023/02/17 07:12:40;;;;;;;1.63;1.52;;;;;;;10.53;77.63;100209.88;5021454;28;20127;-43
2023/02/17 07:15:07;;;;;;;2.25;2.00;;;;;;;10.54;77.67;100221.97;5022202;28;20130;-44
2023/02/17 07:17:37;;;;;;;2.03;1.58;;;;;;;10.57;77.29;100217.66;5023176;28;20050;-45
2023/02/17 07:20:05;;;;;;;1.52;1.40;;;;;;;10.57;77.70;100221.09;5024842;28;20434;-44
2023/02/17 07:22:31;;;;;;;0.85;0.30;;;;;;;10.57;77.70;100194.34;5027155;28;20484;-42
2023/02/17 07:24:58;;;;;;;2.65;1.63;;;;;;;10.56;77.14;100208.13;5028006;28;20168;-47
2023/02/17 07:27:24;;;;;;;1.77;0.52;;;;;;;10.58;77.78;100230.63;5019219;28;20316;-45
2023/02/17 07:29:51;;;;;;;1.65;1.55;;;;;;;10.59;77.47;100221.97;5024602;28;20103;-45
2023/02/17 07:32:18;;;;;;;1.77;1.67;;;;;;;10.57;77.39;100215.06;5022137;28;20048;-46
2023/02/17 07:34:44;;;;;;;1.33;0.52;;;;;;;10.60;78.32;100204.72;5025911;28;20839;-49
2023/02/17 07:37:11;;;;;;;2.78;2.20;;;;;;;10.61;77.96;100196.06;5028196;28;20069;-43
2023/02/17 07:39:37;;;;;;;4.75;4.00;;;;;;;10.63;77.96;100202.09;5024218;28;20094;-45
2023/02/17 07:42:05;;;;;;;2.38;1.95;;;;;;;10.62;77.31;100202.97;5026528;28;20082;-48
2023/02/17 07:44:32;;;;;;;10.40;4.43;;;;;;;10.64;78.07;100202.09;5015645;28;20532;-42
2023/02/17 07:46:58;;;;;;;2.50;2.28;;;;;;;10.65;78.20;100215.94;5006744;28;20148;-45
2023/02/17 07:49:25;;;;;;;2.83;2.63;;;;;;;10.68;78.54;100213.34;5023506;28;20076;-45
2023/02/17 07:51:51;;;;;;;1.80;1.70;;;;;;;10.69;77.35;100209.00;5016828;28;20090;-43
2023/02/17 07:54:18;;;;;;;1.77;1.67;;;;;;;10.67;78.03;100215.06;5020145;28;20111;-42
2023/02/17 07:56:45;;;;;;;2.38;2.17;;;;;;;10.71;78.34;100223.69;5013882;28;20137;-46
2023/02/17 07:59:13;;;;;;;3.13;2.17;;;;;;;10.73;77.48;100216.78;5016301;28;20046;-45
2023/02/17 08:01:39;;;;;;;2.63;2.38;;;;;;;10.74;78.55;100213.31;5016492;28;20057;-44
2023/02/17 08:04:06;;;;;;;2.13;1.88;;;;;;;10.74;77.98;100218.50;5021819;28;20048;-43
2023/02/17 08:06:33;;;;;;;2.47;2.08;;;;;;;10.78;77.84;100220.22;5021037;28;20054;-43
2023/02/17 08:14:32;;;;;;;2.10;2.00;;;;;;;10.82;77.17;100231.47;5026146;28;20073;-47
2023/02/17 08:16:59;;;;;;;3.50;2.08;;;;;;;10.89;78.15;100242.69;5018834;28;20107;-44
2023/02/17 08:19:26;;;;;;;3.00;1.73;;;;;;;10.86;77.51;100242.69;5017725;28;20042;-44
2023/02/17 08:22:11;;;;;;;4.93;4.10;;;;;;;10.88;78.63;100246.13;5024064;28;20057;-41
2023/02/17 08:24:38;;;;;;;3.20;2.78;;;;;;;10.92;78.02;100242.69;5026395;28;20037;-44
2023/02/17 08:27:05;;;;;;;2.80;2.50;;;;;;;10.94;78.52;100246.13;5019995;28;20136;-46
2023/02/17 08:29:31;;;;;;;2.67;1.80;;;;;;;10.94;78.29;100235.75;5022345;28;20175;-43
2023/02/17 08:31:58;;;;;;;4.32;2.55;;;;;;;10.99;78.39;100234.03;5027676;28;20124;-43
2023/02/17 08:34:25;;;;;;;2.75;2.15;;;;;;;10.96;77.65;100227.97;5023528;28;20095;-45
2023/02/17 08:36:51;;;;;;;2.47;1.48;;;;;;;11.02;77.35;100228.81;5017702;28;20472;-47
2023/02/17 08:39:18;;;;;;;3.28;2.15;;;;;;;11.09;77.53;100234.00;5023722;28;20504;-45
2023/02/17 08:41:47;;;;;;;2.65;1.88;;;;;;;11.11;77.54;100232.28;5017650;28;20057;-46
2023/02/17 08:44:16;;;;;;;5.43;3.42;;;;;;;11.16;77.42;100230.53;5023784;28;20127;-45
2023/02/17 08:46:46;;;;;;;3.85;2.80;;;;;;;11.19;77.93;100227.94;5029982;28;20386;-45
2023/02/17 08:49:15;;;;;;;6.30;4.18;;;;;;;11.21;78.17;100226.19;5030515;28;20068;-46
2023/02/17 08:51:42;;;;;;;6.25;3.92;;;;;;;11.24;78.36;100218.41;5029080;28;20389;-44
2023/02/17 08:54:09;;;;;;;4.30;3.05;;;;;;;11.27;77.14;100228.78;5029652;28;20107;-47
2023/02/17 08:56:38;;;;;;;3.55;2.80;;;;;;;11.31;78.57;100234.81;5024911;28;20546;-48
2023/02/17 08:59:07;;;;;;;3.35;2.58;;;;;;;11.36;77.82;100225.31;5030919;28;20081;-43
2023/02/17 09:01:36;;;;;;;3.40;2.40;;;;;;;11.41;76.76;100235.66;5021838;28;20057;-45
2023/02/17 09:04:04;;;;;;;2.95;2.55;;;;;;;11.40;77.21;100233.94;5021449;28;20132;-46
2023/02/17 09:06:35;;;;;;;3.22;2.10;;;;;;;11.44;77.51;100240.84;5024065;28;20326;-45
2023/02/17 09:09:03;;;;;;;3.88;2.20;;;;;;;11.47;78.27;100233.03;5024976;28;20089;-47
2023/02/17 09:11:29;;;;;;;5.18;2.75;;;;;;;11.51;77.90;100242.53;5028024;28;20561;-42
2023/02/17 09:13:56;;;;;;;2.85;2.38;;;;;;;11.55;78.04;100239.06;5023866;28;20107;-44
2023/02/17 09:16:23;;;;;;;3.20;2.05;;;;;;;11.55;77.63;100236.47;5026090;28;20044;-45
2023/02/17 09:18:51;;;;;;;3.13;2.40;;;;;;;11.62;76.83;100237.31;5026831;28;20045;-45
2023/02/17 09:21:19;;;;;;;2.30;2.08;;;;;;;11.66;76.97;100232.97;5025122;28;20041;-47
2023/02/17 09:23:46;;;;;;;1.88;1.77;;;;;;;11.67;76.79;100227.78;5024459;28;20072;-45
2023/02/17 09:26:15;;;;;;;2.45;2.25;;;;;;;11.70;77.24;100237.28;5028320;28;20056;-44
2023/02/17 09:28:42;;;;;;;2.42;2.03;;;;;;;11.76;77.94;100226.00;5034493;28;20076;-45
2023/02/17 09:31:16;;;;;;;2.90;2.03;;;;;;;11.77;76.67;100223.41;5029672;28;20497;-49
2023/02/17 09:33:44;;;;;;;4.15;2.38;;;;;;;11.81;76.75;100230.31;5026004;28;20539;-45
2023/02/17 09:36:13;;;;;;;2.45;2.25;;;;;;;11.87;76.52;100223.34;5025471;28;20095;-47
2023/02/17 09:38:41;;;;;;;2.47;2.10;;;;;;;11.93;76.86;100249.28;5027132;28;20053;-45
2023/02/17 09:41:17;;;;;;;3.25;1.80;;;;;;;11.95;77.70;100234.56;5022471;28;20045;-46
2023/02/17 09:43:44;;;;;;;2.33;2.13;;;;;;;12.01;77.37;100237.13;5032544;28;20049;-49
2023/02/17 09:46:22;;;;;;;1.83;1.73;;;;;;;12.05;76.42;100243.16;5024355;28;20345;-48
2023/02/17 09:48:51;;;;;;;9.57;2.70;;;;;;;12.10;77.62;100245.75;5023804;28;20464;-42
2023/02/17 09:51:27;;;;;;;26.27;6.32;;;;;;;12.17;77.08;100245.72;5024214;28;20124;-44
2023/02/17 09:56:37;;;;;;;21.92;5.38;;;;;;;12.27;76.95;100238.75;5038199;27;20409;-44
2023/02/17 09:59:10;;;;;;;11.25;2.83;;;;;;;12.31;76.72;100245.63;5023223;28;20142;-45
2023/02/17 10:01:38;;;;;;;14.15;4.03;;;;;;;12.44;75.80;100240.34;4977172;28;20046;-45
2023/02/17 10:04:13;;;;;;;11.23;3.58;;;;;;;12.49;75.75;100242.94;4985125;28;20050;-46
2023/02/17 10:06:45;;;;;;;6.00;2.38;;;;;;;12.60;76.00;100241.94;4981018;28;20058;-47
2023/02/17 10:12:12;;;;;;;6.45;2.55;;;;;;;12.89;75.46;100246.91;5114679;27;20405;-45
2023/02/17 10:14:45;;;;;;;4.72;2.08;;;;;;;12.99;74.98;100243.34;5091445;28;20051;-44
2023/02/17 10:17:23;;;;;;;4.00;1.55;;;;;;;13.03;75.32;100250.25;5086516;28;20068;-46
2023/02/17 10:19:56;;;;;;;2.20;1.15;;;;;;;13.08;74.54;100264.06;5070473;28;20496;-44
2023/02/17 10:22:24;;;;;;;3.20;1.27;;;;;;;13.29;74.38;100256.06;5078057;28;20056;-44
2023/02/17 10:24:51;;;;;;;1.33;0.85;;;;;;;13.41;74.92;100265.47;5079732;28;20059;-48
2023/02/17 10:27:48;;;;;;;3.47;1.15;;;;;;;13.46;74.36;100268.88;5077101;28;20419;-46
2023/02/17 10:35:52;;;;;;;1.52;0.98;;;;;;;13.67;73.22;100280.81;5024893;27;20387;-45
2023/02/17 10:41:23;;;;;;;1.88;1.60;;;;;;;13.86;72.73;100278.00;5063356;27;20389;-46
2023/02/17 10:43:50;;;;;;;4.80;1.70;;;;;;;13.90;73.78;100286.63;5023919;28;20089;-44
2023/02/17 10:46:24;;;;;;;1.60;1.50;;;;;;;13.95;73.03;100280.47;5023494;28;20135;-44
2023/02/17 10:48:53;;;;;;;3.67;2.00;;;;;;;13.96;72.39;100290.03;5020435;28;20123;-45
2023/02/17 10:51:30;;;;;;;1.40;1.30;;;;;;;13.96;72.33;100300.44;5020722;28;20100;-46
2023/02/17 10:54:00;;;;;;;;;;;;;;;13.87;71.98;100306.63;5024937;28;20993;-48
2023/02/17 10:56:49;;;;;;;1.52;1.42;;;;;;;13.99;72.28;100286.50;5017866;28;19947;-44
2023/02/17 11:04:53;;;;;;;1.58;0.82;;;;;;;14.24;72.20;100302.66;5069891;27;20410;-43
2023/02/17 11:07:31;;;;;;;2.03;0.98;;;;;;;14.31;71.43;100305.16;5012904;28;20072;-44
2023/02/17 11:10:01;;;;;;;1.00;0.88;;;;;;;14.37;71.58;100320.72;5013755;28;20062;-44
2023/02/17 11:12:37;;;;;;;1.98;0.73;;;;;;;14.39;71.15;100314.59;5008875;28;20054;-44
2023/02/17 11:15:15;;;;;;;2.75;0.95;;;;;;;14.40;70.84;100311.09;5021506;28;20081;-47
2023/02/17 11:17:42;;;;;;;1.27;1.00;;;;;;;14.44;71.05;100321.50;5029013;28;20140;-45
2023/02/17 11:23:21;;;;;;;2.08;1.98;;;;;;;14.48;70.76;100315.34;5061593;28;20383;-46
2023/02/17 11:26:10;;;;;;;1.95;1.85;;;;;;;14.53;70.24;100318.78;5012855;28;20124;-47
2023/02/17 11:28:36;;;;;;;2.15;1.45;;;;;;;14.59;70.53;100339.50;5010601;28;20046;-48
2023/02/17 11:31:05;;;;;;;1.50;0.40;;;;;;;14.64;71.06;100349.88;5010962;28;20637;-47
2023/02/17 11:33:39;;;;;;;1.73;1.63;;;;;;;14.71;70.93;100340.22;5009231;28;20054;-50
2023/02/17 11:36:09;;;;;;;0.40;0.30;;;;;;;14.73;70.31;100348.88;5031111;28;20435;-46
2023/02/17 11:41:13;;;;;;;9.82;2.60;;;;;;;14.85;70.20;100346.13;5024266;28;20400;-45
2023/02/17 11:43:51;;;;;;;6.82;1.90;;;;;;;14.85;69.37;100353.94;4997388;28;20342;-45
2023/02/17 12:16:54;;;;;;;2.20;1.73;;;;;;;15.37;66.94;100407.91;5044980;28;22841;-48
2023/02/17 12:19:41;;;;;;;;;;;;;;;15.34;67.00;100398.38;4996159;28;20090;-47
2023/02/17 12:27:41;;;;;;;5.25;0.88;;;;;;;15.55;65.28;100391.06;5031289;27;20424;-44
2023/02/17 12:30:36;;;;;;;0.60;0.50;;;;;;;15.42;63.29;100401.72;5013045;28;20107;-46
2023/02/17 12:33:30;;;;;;;1.85;0.30;;;;;;;15.24;61.48;100396.81;5017925;28;20053;-46
2023/02/17 12:36:01;;;;;;;2.33;0.60;;;;;;;15.19;61.62;100398.66;5011389;28;20073;-43
2023/02/17 12:38:33;;;;;;;3.63;0.30;;;;;;;15.20;62.17;100397.75;5013748;28;20099;-51
2023/02/17 12:41:06;;;;;;;4.75;0.65;;;;;;;15.29;62.61;100405.41;5018941;28;20085;-47
2023/02/17 12:43:41;;;;;;;4.47;0.40;;;;;;;15.29;61.68;100395.84;5016236;28;20572;-47
2023/02/17 12:46:13;;;;;;;0.63;0.30;;;;;;;15.30;61.70;100425.38;5012435;28;20093;-44
2023/02/17 12:51:38;;;;;;;2.05;0.28;;;;;;;15.15;60.42;100419.56;5015428;28;20408;-47
2023/02/17 12:54:16;;;;;;;1.25;0.43;;;;;;;15.28;61.09;100416.75;5010646;28;20571;-44
2023/02/17 13:02:10;;;;;;;0.95;0.30;;;;;;;15.55;61.15;100448.50;5044387;27;20388;-44
2023/02/17 13:04:39;;;;;;;1.02;0.30;;;;;;;15.58;59.85;100448.44;4992066;28;20054;-43
2023/02/17 13:09:45;;;;;;;1.25;0.28;;;;;;;15.82;60.59;100472.41;5008558;27;20437;-44
2023/02/17 13:12:34;;;;;;;2.03;0.40;;;;;;;15.84;59.95;100460.16;4992296;28;20160;-46
2023/02/17 13:15:04;;;;;;;2.30;0.50;;;;;;;16.00;59.89;100476.47;4989843;28;20042;-47
2023/02/17 13:17:37;;;;;;;1.75;0.32;;;;;;;16.02;58.79;100473.81;4995599;28;20545;-46
2023/02/17 13:20:24;;;;;;;0.30;0.22;;;;;;;15.86;57.60;100474.06;5000485;28;20109;-46
2023/02/17 13:23:03;;;;;;;2.75;0.50;;;;;;;15.62;56.51;100464.91;4996539;28;20497;-46